Time,TemperatureF,DewpointF,PressureIn,WindDirection,WindDirectionDegrees,WindSpeedMPH,WindSpeedGustMPH,Humidity,HourlyPrecipIn,Conditions,Clouds,dailyrainin,SoftwareType,DateUTC
2013-11-09 00:01:00,33.7,24.8,30.34,NNW,338,0.0,0.8,70,0.00,,,0.00,WUHU216HW,2013-11-09 05:01:00,
2013-11-09 00:06:00,33.7,25.2,30.34,NNW,338,0.0,0.0,71,0.00,,,0.00,WUHU216HW,2013-11-09 05:06:00,
2013-11-09 00:11:00,33.5,24.7,30.34,NNW,338,0.0,0.0,70,0.00,,,0.00,WUHU216HW,2013-11-09 05:11:00,
2013-11-09 00:16:00,33.7,24.8,30.34,NNW,338,0.0,0.0,70,0.00,,,0.00,WUHU216HW,2013-11-09 05:16:00,
2013-11-09 00:21:00,33.7,24.8,30.34,NNW,338,0.0,0.0,70,0.00,,,0.00,WUHU216HW,2013-11-09 05:21:00,
2013-11-09 00:26:00,33.8,25.0,30.34,NNW,338,0.0,0.0,70,0.00,,,0.00,WUHU216HW,2013-11-09 05:26:00,
2013-11-09 00:31:00,33.7,24.8,30.33,NNW,338,0.0,0.0,70,0.00,,,0.00,WUHU216HW,2013-11-09 05:31:00,
2013-11-09 00:36:00,33.5,24.7,30.35,NNW,338,0.0,0.0,70,0.00,,,0.00,WUHU216HW,2013-11-09 05:36:00,
2013-11-09 00:41:00,33.5,24.7,30.34,NNW,338,0.8,0.8,70,0.00,,,0.00,WUHU216HW,2013-11-09 05:41:00,
2013-11-09 00:46:00,33.5,24.7,30.34,NNW,338,0.0,0.8,70,0.00,,,0.00,WUHU216HW,2013-11-09 05:46:00,
2013-11-09 00:51:00,33.7,24.8,30.34,NNW,338,0.0,0.0,70,0.00,,,0.00,WUHU216HW,2013-11-09 05:51:00,
2013-11-09 00:56:00,33.3,24.6,30.34,NNW,338,0.8,0.8,70,0.00,,,0.00,WUHU216HW,2013-11-09 05:56:00,
2013-11-09 01:01:00,32.8,24.0,30.35,NNW,338,0.0,0.8,70,0.00,,,0.00,WUHU216HW,2013-11-09 06:01:00,
2013-11-09 01:06:00,32.9,24.6,30.34,NNW,338,0.4,0.4,71,0.00,,,0.00,WUHU216HW,2013-11-09 06:06:00,
2013-11-09 01:11:00,32.8,24.4,30.34,NNW,338,0.0,0.4,71,0.00,,,0.00,WUHU216HW,2013-11-09 06:11:00,
2013-11-09 01:16:00,32.6,23.9,30.34,NNW,338,0.0,0.0,70,0.00,,,0.00,WUHU216HW,2013-11-09 06:16:00,
2013-11-09 01:21:00,32.4,24.4,30.34,NNW,338,0.0,0.0,72,0.00,,,0.00,WUHU216HW,2013-11-09 06:21:00,
2013-11-09 01:26:00,32.2,24.2,30.35,NNW,338,0.0,0.0,72,0.00,,,0.00,WUHU216HW,2013-11-09 06:26:00,
2013-11-09 01:31:00,32.4,24.7,30.34,NNW,338,0.0,0.0,73,0.00,,,0.00,WUHU216HW,2013-11-09 06:31:00,
2013-11-09 01:36:00,32.8,26.0,30.34,NNW,338,0.0,0.0,76,0.00,,,0.00,WUHU216HW,2013-11-09 06:36:00,
2013-11-09 01:41:00,32.0,24.7,30.34,NNW,338,0.0,0.0,74,0.00,,,0.00,WUHU216HW,2013-11-09 06:41:00,
2013-11-09 01:46:00,31.7,24.3,30.34,NNW,338,0.0,0.0,74,0.00,,,0.00,WUHU216HW,2013-11-09 06:46:00,
2013-11-09 01:51:00,31.5,24.1,30.34,NW,315,0.0,0.0,74,0.00,,,0.00,WUHU216HW,2013-11-09 06:51:00,
2013-11-09 01:56:00,31.5,23.9,30.33,NW,315,0.0,0.0,73,0.00,,,0.00,WUHU216HW,2013-11-09 06:56:00,
2013-11-09 02:01:00,31.7,24.0,30.34,NW,315,0.0,0.0,73,0.00,,,0.00,WUHU216HW,2013-11-09 07:01:00,
2013-11-09 02:06:00,31.7,23.7,30.34,NW,315,0.0,0.0,72,0.00,,,0.00,WUHU216HW,2013-11-09 07:06:00,
2013-11-09 02:11:00,31.7,23.7,30.34,SW,225,0.0,0.0,72,0.00,,,0.00,WUHU216HW,2013-11-09 07:11:00,
2013-11-09 02:16:00,32.0,24.0,30.34,SW,225,0.0,0.0,72,0.00,,,0.00,WUHU216HW,2013-11-09 07:16:00,
2013-11-09 02:21:00,32.0,23.8,30.35,WSW,248,0.0,0.0,71,0.00,,,0.00,WUHU216HW,2013-11-09 07:21:00,
2013-11-09 02:26:00,32.2,24.2,30.35,SE,135,0.0,0.0,72,0.00,,,0.00,WUHU216HW,2013-11-09 07:26:00,
2013-11-09 02:31:00,32.6,24.2,30.34,SSW,203,0.0,0.0,71,0.00,,,0.00,WUHU216HW,2013-11-09 07:31:00,
2013-11-09 02:36:00,32.6,24.2,30.34,SSW,203,0.0,0.0,71,0.00,,,0.00,WUHU216HW,2013-11-09 07:36:00,
2013-11-09 02:41:00,32.8,24.4,30.34,SSW,203,0.0,0.0,71,0.00,,,0.00,WUHU216HW,2013-11-09 07:41:00,
2013-11-09 02:46:00,32.4,24.0,30.35,SSW,203,0.0,0.0,71,0.00,,,0.00,WUHU216HW,2013-11-09 07:46:00,
2013-11-09 02:51:00,32.4,24.4,30.34,SSW,203,0.0,0.0,72,0.00,,,0.00,WUHU216HW,2013-11-09 07:51:00,
2013-11-09 02:56:00,32.2,24.2,30.34,SSW,203,0.0,0.0,72,0.00,,,0.00,WUHU216HW,2013-11-09 07:56:00,
2013-11-09 03:01:00,32.4,24.0,30.34,SSW,203,0.0,0.0,71,0.00,,,0.00,WUHU216HW,2013-11-09 08:01:00,
2013-11-09 03:06:00,32.4,24.0,30.34,SSW,203,0.0,0.0,71,0.00,,,0.00,WUHU216HW,2013-11-09 08:06:00,
2013-11-09 03:11:00,32.4,24.4,30.34,SSW,203,0.0,0.0,72,0.00,,,0.00,WUHU216HW,2013-11-09 08:11:00,
2013-11-09 03:16:00,32.0,24.0,30.34,SSW,203,0.0,0.0,72,0.00,,,0.00,WUHU216HW,2013-11-09 08:16:00,
2013-11-09 03:21:00,32.0,24.4,30.34,SSW,203,0.0,0.0,73,0.00,,,0.00,WUHU216HW,2013-11-09 08:21:00,
2013-11-09 03:26:00,31.9,23.9,30.34,SW,225,0.0,0.0,72,0.00,,,0.00,WUHU216HW,2013-11-09 08:26:00,
2013-11-09 03:31:00,31.7,23.7,30.34,SSW,203,0.0,0.0,72,0.00,,,0.00,WUHU216HW,2013-11-09 08:31:00,
2013-11-09 03:36:00,31.9,23.9,30.34,SSW,203,0.0,0.0,72,0.00,,,0.00,WUHU216HW,2013-11-09 08:36:00,
2013-11-09 03:41:00,32.8,26.6,30.34,SSW,203,0.0,0.0,78,0.00,,,0.00,WUHU216HW,2013-11-09 08:41:00,
2013-11-09 03:46:00,31.9,24.5,30.33,SW,225,0.0,0.0,74,0.00,,,0.00,WUHU216HW,2013-11-09 08:46:00,
2013-11-09 03:51:00,31.3,23.9,30.34,SSW,203,0.0,0.0,74,0.00,,,0.00,WUHU216HW,2013-11-09 08:51:00,
2013-11-09 03:56:00,31.3,23.9,30.33,WSW,248,0.0,0.0,74,0.00,,,0.00,WUHU216HW,2013-11-09 08:56:00,
2013-11-09 04:01:00,31.0,23.6,30.34,SE,135,0.0,0.0,74,0.00,,,0.00,WUHU216HW,2013-11-09 09:01:00,
2013-11-09 04:06:00,31.1,23.8,30.33,WNW,293,0.0,0.0,74,0.00,,,0.00,WUHU216HW,2013-11-09 09:06:00,
2013-11-09 04:11:00,31.3,23.7,30.33,West,270,0.0,0.0,73,0.00,,,0.00,WUHU216HW,2013-11-09 09:11:00,
2013-11-09 04:16:00,31.3,23.7,30.34,West,270,0.0,0.0,73,0.00,,,0.00,WUHU216HW,2013-11-09 09:16:00,
2013-11-09 04:21:00,31.3,23.3,30.34,West,270,0.0,0.0,72,0.00,,,0.00,WUHU216HW,2013-11-09 09:21:00,
2013-11-09 04:26:00,31.3,23.3,30.33,West,270,0.0,0.0,72,0.00,,,0.00,WUHU216HW,2013-11-09 09:26:00,
2013-11-09 04:31:00,31.1,23.1,30.34,SSW,203,0.0,0.0,72,0.00,,,0.00,WUHU216HW,2013-11-09 09:31:00,
2013-11-09 04:36:00,31.1,23.5,30.34,WSW,248,0.0,0.0,73,0.00,,,0.00,WUHU216HW,2013-11-09 09:36:00,
2013-11-09 04:41:00,31.0,23.3,30.34,WSW,248,0.0,0.0,73,0.00,,,0.00,WUHU216HW,2013-11-09 09:41:00,
2013-11-09 04:46:00,30.8,23.4,30.34,WSW,248,0.0,0.0,74,0.00,,,0.00,WUHU216HW,2013-11-09 09:46:00,
2013-11-09 04:51:00,30.6,23.2,30.34,WSW,248,0.0,0.0,74,0.00,,,0.00,WUHU216HW,2013-11-09 09:51:00,
2013-11-09 04:56:00,30.2,22.9,30.34,WSW,248,0.0,0.0,74,0.00,,,0.00,WUHU216HW,2013-11-09 09:56:00,
2013-11-09 05:01:00,29.9,22.9,30.34,WSW,248,0.0,0.0,75,0.00,,,0.00,WUHU216HW,2013-11-09 10:01:00,
2013-11-09 05:06:00,29.7,22.7,30.34,WSW,248,0.0,0.0,75,0.00,,,0.00,WUHU216HW,2013-11-09 10:06:00,
2013-11-09 05:11:00,29.5,22.9,30.34,WSW,248,0.0,0.0,76,0.00,,,0.00,WUHU216HW,2013-11-09 10:11:00,
2013-11-09 05:16:00,29.3,22.7,30.35,WSW,248,0.0,0.0,76,0.00,,,0.00,WUHU216HW,2013-11-09 10:16:00,
2013-11-09 05:21:00,29.3,22.4,30.34,West,270,0.0,0.0,75,0.00,,,0.00,WUHU216HW,2013-11-09 10:21:00,
2013-11-09 05:26:00,29.9,23.5,30.35,West,270,0.0,0.0,77,0.00,,,0.00,WUHU216HW,2013-11-09 10:26:00,
2013-11-09 05:31:00,29.9,24.1,30.35,West,270,0.0,0.0,79,0.00,,,0.00,WUHU216HW,2013-11-09 10:31:00,
2013-11-09 05:36:00,29.5,23.1,30.35,West,270,0.0,0.0,77,0.00,,,0.00,WUHU216HW,2013-11-09 10:36:00,
2013-11-09 05:41:00,29.3,22.7,30.35,West,270,0.0,0.0,76,0.00,,,0.00,WUHU216HW,2013-11-09 10:41:00,
2013-11-09 05:46:00,29.5,22.9,30.36,ENE,68,0.0,0.0,76,0.00,,,0.00,WUHU216HW,2013-11-09 10:46:00,
2013-11-09 05:51:00,29.5,22.9,30.35,NW,315,0.0,0.0,76,0.00,,,0.00,WUHU216HW,2013-11-09 10:51:00,
2013-11-09 05:56:00,29.5,22.5,30.36,NW,315,0.0,0.0,75,0.00,,,0.00,WUHU216HW,2013-11-09 10:56:00,
2013-11-09 06:01:00,29.5,22.9,30.36,NW,315,0.0,0.0,76,0.00,,,0.00,WUHU216HW,2013-11-09 11:01:00,
2013-11-09 06:06:00,29.5,22.5,30.36,WNW,293,0.0,0.0,75,0.00,,,0.00,WUHU216HW,2013-11-09 11:06:00,
2013-11-09 06:11:00,29.5,22.5,30.36,WNW,293,0.0,0.0,75,0.00,,,0.00,WUHU216HW,2013-11-09 11:11:00,
2013-11-09 06:16:00,29.7,22.7,30.36,WNW,293,0.0,0.0,75,0.00,,,0.00,WUHU216HW,2013-11-09 11:16:00,
2013-11-09 06:21:00,29.7,22.7,30.36,WNW,293,0.0,0.0,75,0.00,,,0.00,WUHU216HW,2013-11-09 11:21:00,
2013-11-09 06:26:00,29.5,22.2,30.37,WNW,293,0.0,0.0,74,0.00,,,0.00,WUHU216HW,2013-11-09 11:26:00,
2013-11-09 06:31:00,29.5,22.2,30.37,WNW,293,0.0,0.0,74,0.00,,,0.00,WUHU216HW,2013-11-09 11:31:00,
2013-11-09 06:36:00,29.5,22.2,30.37,WNW,293,0.0,0.0,74,0.00,,,0.00,WUHU216HW,2013-11-09 11:36:00,
2013-11-09 06:41:00,29.7,22.4,30.37,WNW,293,0.0,0.0,74,0.00,,,0.00,WUHU216HW,2013-11-09 11:41:00,
2013-11-09 06:46:00,29.5,22.5,30.37,NW,315,0.0,0.0,75,0.00,,,0.00,WUHU216HW,2013-11-09 11:46:00,
2013-11-09 06:51:00,29.5,22.9,30.37,NW,315,0.0,0.0,76,0.00,,,0.00,WUHU216HW,2013-11-09 11:51:00,
2013-11-09 06:56:00,29.7,23.3,30.37,NW,315,0.0,0.0,77,0.00,,,0.00,WUHU216HW,2013-11-09 11:56:00,
2013-11-09 07:01:00,29.2,22.5,30.38,NW,315,0.0,0.0,76,0.00,,,0.00,WUHU216HW,2013-11-09 12:01:00,
2013-11-09 07:06:00,28.8,22.1,30.38,NW,315,0.0,0.0,76,0.00,,,0.00,WUHU216HW,2013-11-09 12:06:00,
2013-11-09 07:11:00,28.8,21.9,30.38,NW,315,0.0,0.0,75,0.00,,,0.00,WUHU216HW,2013-11-09 12:11:00,
2013-11-09 07:16:00,28.8,21.9,30.38,NW,315,0.0,0.0,75,0.00,,,0.00,WUHU216HW,2013-11-09 12:16:00,
2013-11-09 07:21:00,29.0,22.1,30.38,NW,315,0.0,0.0,75,0.00,,,0.00,WUHU216HW,2013-11-09 12:21:00,
2013-11-09 07:26:00,29.2,22.5,30.38,NW,315,0.0,0.0,76,0.00,,,0.00,WUHU216HW,2013-11-09 12:26:00,
2013-11-09 07:31:00,29.2,22.2,30.38,NW,315,0.0,0.0,75,0.00,,,0.00,WUHU216HW,2013-11-09 12:31:00,
2013-11-09 07:36:00,29.3,22.4,30.38,NW,315,0.0,0.0,75,0.00,,,0.00,WUHU216HW,2013-11-09 12:36:00,
2013-11-09 07:41:00,29.5,22.5,30.38,NW,315,0.0,0.0,75,0.00,,,0.00,WUHU216HW,2013-11-09 12:41:00,
2013-11-09 07:46:00,29.9,22.9,30.38,NW,315,0.0,0.0,75,0.00,,,0.00,WUHU216HW,2013-11-09 12:46:00,
2013-11-09 07:51:00,30.1,23.0,30.38,NW,315,0.0,0.0,75,0.00,,,0.00,WUHU216HW,2013-11-09 12:51:00,
2013-11-09 07:56:00,30.2,23.6,30.38,NW,315,0.0,0.0,76,0.00,,,0.00,WUHU216HW,2013-11-09 12:56:00,
2013-11-09 08:01:00,30.6,24.0,30.39,NW,315,0.0,0.0,76,0.00,,,0.00,WUHU216HW,2013-11-09 13:01:00,
2013-11-09 08:05:00,31.0,24.3,30.39,NW,315,0.0,0.4,76,0.00,,,0.00,WUHU216HW,2013-11-09 13:05:00,
2013-11-09 08:10:00,31.1,24.1,30.39,NW,315,0.0,0.4,75,0.00,,,0.00,WUHU216HW,2013-11-09 13:10:00,
2013-11-09 08:15:00,31.5,24.5,30.39,NNW,338,0.0,0.0,75,0.00,,,0.00,WUHU216HW,2013-11-09 13:15:00,
2013-11-09 08:20:00,32.0,25.0,30.39,NNW,338,0.0,0.0,75,0.00,,,0.00,WUHU216HW,2013-11-09 13:20:00,
2013-11-09 08:25:00,32.4,25.0,30.39,NNW,338,0.0,0.0,74,0.00,,,0.00,WUHU216HW,2013-11-09 13:25:00,
2013-11-09 08:30:00,32.8,25.4,30.39,NW,315,0.0,0.0,74,0.00,,,0.00,WUHU216HW,2013-11-09 13:30:00,
2013-11-09 08:35:00,33.3,25.5,30.39,NW,315,0.0,0.0,73,0.00,,,0.00,WUHU216HW,2013-11-09 13:35:00,
2013-11-09 08:40:00,33.8,26.0,30.39,NW,315,0.0,0.0,73,0.00,,,0.00,WUHU216HW,2013-11-09 13:40:00,
2013-11-09 08:45:00,34.4,26.6,30.39,NW,315,0.0,0.0,73,0.00,,,0.00,WUHU216HW,2013-11-09 13:45:00,
2013-11-09 08:50:00,34.9,27.1,30.38,NW,315,0.0,0.0,73,0.00,,,0.00,WUHU216HW,2013-11-09 13:50:00,
2013-11-09 08:55:00,35.6,27.8,30.38,NW,315,0.0,0.0,73,0.00,,,0.00,WUHU216HW,2013-11-09 13:55:00,
2013-11-09 09:00:00,36.2,28.4,30.39,WNW,293,0.0,0.0,73,0.00,,,0.00,WUHU216HW,2013-11-09 14:00:00,
2013-11-09 09:05:00,36.9,28.5,30.39,WNW,293,0.0,0.8,71,0.00,,,0.00,WUHU216HW,2013-11-09 14:05:00,
2013-11-09 09:10:00,37.4,29.0,30.39,WNW,293,0.0,0.8,71,0.00,,,0.00,WUHU216HW,2013-11-09 14:10:00,
2013-11-09 09:15:00,38.3,30.8,30.39,WSW,248,0.0,2.6,74,0.00,,,0.00,WUHU216HW,2013-11-09 14:15:00,
2013-11-09 09:20:00,39.1,30.4,30.38,West,270,0.0,2.6,71,0.00,,,0.00,WUHU216HW,2013-11-09 14:20:00,
2013-11-09 09:25:00,39.2,30.6,30.38,West,270,0.0,0.0,71,0.00,,,0.00,WUHU216HW,2013-11-09 14:25:00,
2013-11-09 09:30:00,39.6,30.6,30.39,NNE,23,0.0,0.0,70,0.00,,,0.00,WUHU216HW,2013-11-09 14:30:00,
2013-11-09 09:35:00,40.0,30.3,30.38,NNW,338,0.8,1.8,68,0.00,,,0.00,WUHU216HW,2013-11-09 14:35:00,
2013-11-09 09:40:00,40.5,30.8,30.39,SSE,158,0.0,1.8,68,0.00,,,0.00,WUHU216HW,2013-11-09 14:40:00,
2013-11-09 09:45:00,41.2,32.2,30.38,SW,225,0.0,1.4,70,0.00,,,0.00,WUHU216HW,2013-11-09 14:45:00,
2013-11-09 09:50:00,41.6,31.4,30.39,SW,225,0.0,2.2,67,0.00,,,0.00,WUHU216HW,2013-11-09 14:50:00,
2013-11-09 09:55:00,42.1,32.0,30.39,West,270,0.8,2.2,67,0.00,,,0.00,WUHU216HW,2013-11-09 14:55:00,
2013-11-09 10:00:00,42.1,32.0,30.39,South,180,0.0,1.4,67,0.00,,,0.00,WUHU216HW,2013-11-09 15:00:00,
2013-11-09 10:05:00,42.5,32.0,30.39,WSW,248,0.8,1.8,66,0.00,,,0.00,WUHU216HW,2013-11-09 15:05:00,
2013-11-09 10:10:00,43.0,31.7,30.39,West,270,0.8,1.8,64,0.00,,,0.00,WUHU216HW,2013-11-09 15:10:00,
2013-11-09 10:15:00,43.6,31.8,30.38,SE,135,0.0,1.8,63,0.00,,,0.00,WUHU216HW,2013-11-09 15:15:00,
2013-11-09 10:20:00,44.5,31.9,30.38,West,270,2.6,3.2,61,0.00,,,0.00,WUHU216HW,2013-11-09 15:20:00,
2013-11-09 10:25:00,44.8,31.4,30.38,SE,135,3.2,3.6,59,0.00,,,0.00,WUHU216HW,2013-11-09 15:25:00,
2013-11-09 10:30:00,45.5,31.1,30.38,West,270,0.8,4.0,57,0.00,,,0.00,WUHU216HW,2013-11-09 15:30:00,
2013-11-09 10:35:00,46.3,31.8,30.38,East,90,1.4,5.0,57,0.00,,,0.00,WUHU216HW,2013-11-09 15:35:00,
2013-11-09 10:40:00,46.6,30.8,30.38,WSW,248,1.4,5.0,54,0.00,,,0.00,WUHU216HW,2013-11-09 15:40:00,
2013-11-09 10:45:00,47.2,31.3,30.38,South,180,0.4,3.6,54,0.00,,,0.00,WUHU216HW,2013-11-09 15:45:00,
2013-11-09 10:50:00,47.9,31.1,30.37,SSW,203,3.6,3.6,52,0.00,,,0.00,WUHU216HW,2013-11-09 15:50:00,
2013-11-09 10:55:00,48.4,29.5,30.37,ENE,68,2.2,3.6,48,0.00,,,0.00,WUHU216HW,2013-11-09 15:55:00,
2013-11-09 11:00:00,48.8,30.4,30.36,ESE,113,1.8,3.2,49,0.00,,,0.00,WUHU216HW,2013-11-09 16:00:00,
2013-11-09 11:05:00,49.3,31.0,30.36,SSE,158,2.2,3.6,49,0.00,,,0.00,WUHU216HW,2013-11-09 16:05:00,
2013-11-09 11:10:00,49.9,31.5,30.36,WSW,248,0.8,3.6,49,0.00,,,0.00,WUHU216HW,2013-11-09 16:10:00,
2013-11-09 11:15:00,50.8,30.1,30.36,SSE,158,0.8,3.6,45,0.00,,,0.00,WUHU216HW,2013-11-09 16:15:00,
2013-11-09 11:20:00,50.8,30.1,30.35,ENE,68,0.0,3.6,45,0.00,,,0.00,WUHU216HW,2013-11-09 16:20:00,
2013-11-09 11:25:00,51.1,29.9,30.35,WSW,248,2.2,3.6,44,0.00,,,0.00,WUHU216HW,2013-11-09 16:25:00,
2013-11-09 11:30:00,51.5,29.6,30.34,WSW,248,8.0,9.0,43,0.00,,,0.00,WUHU216HW,2013-11-09 16:30:00,
2013-11-09 11:35:00,51.8,30.5,30.34,SW,225,1.4,9.0,44,0.00,,,0.00,WUHU216HW,2013-11-09 16:35:00,
2013-11-09 11:40:00,52.7,30.8,30.34,North,0,0.8,7.6,43,0.00,,,0.00,WUHU216HW,2013-11-09 16:40:00,
2013-11-09 11:45:00,53.1,30.5,30.34,WSW,248,3.6,7.6,42,0.00,,,0.00,WUHU216HW,2013-11-09 16:45:00,
2013-11-09 11:50:00,52.9,28.5,30.33,NNW,338,1.8,5.4,39,0.00,,,0.00,WUHU216HW,2013-11-09 16:50:00,
2013-11-09 11:55:00,53.1,31.1,30.34,East,90,2.2,4.4,43,0.00,,,0.00,WUHU216HW,2013-11-09 16:55:00,
2013-11-09 12:00:00,54.0,31.3,30.33,East,90,3.2,9.0,42,0.00,,,0.00,WUHU216HW,2013-11-09 17:00:00,
2013-11-09 12:05:00,54.4,29.9,30.33,WNW,293,4.4,9.0,39,0.00,,,0.00,WUHU216HW,2013-11-09 17:05:00,
2013-11-09 12:10:00,54.4,29.9,30.33,West,270,2.2,5.0,39,0.00,,,0.00,WUHU216HW,2013-11-09 17:10:00,
2013-11-09 12:15:00,54.0,28.8,30.32,NW,315,1.8,5.4,38,0.00,,,0.00,WUHU216HW,2013-11-09 17:15:00,
2013-11-09 12:20:00,54.2,29.7,30.32,WSW,248,4.0,5.4,39,0.00,,,0.00,WUHU216HW,2013-11-09 17:20:00,
2013-11-09 12:25:00,54.9,30.3,30.32,SW,225,1.8,6.8,39,0.00,,,0.00,WUHU216HW,2013-11-09 17:25:00,
2013-11-09 12:30:00,54.7,29.4,30.31,SW,225,1.8,6.8,38,0.00,,,0.00,WUHU216HW,2013-11-09 17:30:00,
2013-11-09 12:35:00,54.7,30.2,30.31,SE,135,5.0,5.0,39,0.00,,,0.00,WUHU216HW,2013-11-09 17:35:00,
2013-11-09 12:40:00,54.9,29.6,30.31,SW,225,2.2,6.8,38,0.00,,,0.00,WUHU216HW,2013-11-09 17:40:00,
2013-11-09 12:45:00,55.8,30.4,30.31,West,270,4.4,6.8,38,0.00,,,0.00,WUHU216HW,2013-11-09 17:45:00,
2013-11-09 12:50:00,56.2,30.8,30.30,ESE,113,9.4,9.4,38,0.00,,,0.00,WUHU216HW,2013-11-09 17:50:00,
2013-11-09 12:55:00,55.4,29.4,30.30,SE,135,0.8,9.4,37,0.00,,,0.00,WUHU216HW,2013-11-09 17:55:00,
2013-11-09 13:00:00,55.6,30.2,30.30,SW,225,3.6,3.6,38,0.00,,,0.00,WUHU216HW,2013-11-09 18:00:00,
2013-11-09 13:05:00,56.3,27.4,30.30,NNW,338,4.0,5.8,33,0.00,,,0.00,WUHU216HW,2013-11-09 18:05:00,
2013-11-09 13:10:00,56.5,28.3,30.30,SE,135,5.4,5.8,34,0.00,,,0.00,WUHU216HW,2013-11-09 18:10:00,
2013-11-09 13:12:00,56.3,28.8,30.29,South,180,6.2,6.2,35,0.00,,,0.00,WUHU216HW,2013-11-09 18:12:00,
2013-11-09 13:27:00,56.2,30.1,30.29,SSE,158,2.2,6.8,37,0.00,,,0.00,WUHU216HW,2013-11-09 18:27:00,
2013-11-09 13:32:00,56.5,29.7,30.29,SSW,203,8.6,9.8,36,0.00,,,0.00,WUHU216HW,2013-11-09 18:32:00,
2013-11-09 13:37:00,55.8,27.6,30.29,WNW,293,5.4,9.8,34,0.00,,,0.00,WUHU216HW,2013-11-09 18:37:00,
2013-11-09 13:42:00,55.8,29.0,30.28,South,180,4.4,8.6,36,0.00,,,0.00,WUHU216HW,2013-11-09 18:42:00,
2013-11-09 13:47:00,56.5,29.7,30.28,SSE,158,5.0,8.6,36,0.00,,,0.00,WUHU216HW,2013-11-09 18:47:00,
2013-11-09 13:52:00,57.2,28.9,30.28,South,180,2.6,6.8,34,0.00,,,0.00,WUHU216HW,2013-11-09 18:52:00,
2013-11-09 13:57:00,56.9,29.3,30.28,WSW,248,1.4,7.6,35,0.00,,,0.00,WUHU216HW,2013-11-09 18:57:00,
2013-11-09 14:02:00,56.7,28.5,30.28,WNW,293,4.4,7.6,34,0.00,,,0.00,WUHU216HW,2013-11-09 19:02:00,
2013-11-09 14:07:00,57.4,30.5,30.28,SW,225,2.2,4.4,36,0.00,,,0.00,WUHU216HW,2013-11-09 19:07:00,
2013-11-09 14:12:00,58.0,30.2,30.27,SW,225,5.0,5.0,35,0.00,,,0.00,WUHU216HW,2013-11-09 19:12:00,
2013-11-09 14:17:00,57.2,29.6,30.27,SSW,203,0.8,5.0,35,0.00,,,0.00,WUHU216HW,2013-11-09 19:17:00,
2013-11-09 14:22:00,56.9,30.7,30.27,West,270,0.0,9.4,37,0.00,,,0.00,WUHU216HW,2013-11-09 19:22:00,
2013-11-09 14:27:00,57.2,30.3,30.26,WNW,293,1.4,9.4,36,0.00,,,0.00,WUHU216HW,2013-11-09 19:27:00,
2013-11-09 14:32:00,57.4,29.1,30.26,NNW,338,6.8,6.8,34,0.00,,,0.00,WUHU216HW,2013-11-09 19:32:00,
2013-11-09 14:37:00,56.9,30.0,30.27,SSW,203,3.2,6.8,36,0.00,,,0.00,WUHU216HW,2013-11-09 19:37:00,
2013-11-09 14:42:00,56.2,30.8,30.27,WSW,248,5.4,5.4,38,0.00,,,0.00,WUHU216HW,2013-11-09 19:42:00,
2013-11-09 14:47:00,56.3,29.5,30.26,WSW,248,2.6,8.6,36,0.00,,,0.00,WUHU216HW,2013-11-09 19:47:00,
2013-11-09 14:52:00,56.7,30.5,30.27,West,270,0.0,8.6,37,0.00,,,0.00,WUHU216HW,2013-11-09 19:52:00,
2013-11-09 14:57:00,56.5,30.3,30.27,SW,225,1.4,5.4,37,0.00,,,0.00,WUHU216HW,2013-11-09 19:57:00,
2013-11-09 15:02:00,56.2,30.1,30.27,WSW,248,4.4,4.4,37,0.00,,,0.00,WUHU216HW,2013-11-09 20:02:00,
2013-11-09 15:07:00,56.5,30.3,30.26,West,270,0.4,4.4,37,0.00,,,0.00,WUHU216HW,2013-11-09 20:07:00,
2013-11-09 15:12:00,56.9,30.0,30.26,SW,225,8.0,8.0,36,0.00,,,0.00,WUHU216HW,2013-11-09 20:12:00,
2013-11-09 15:17:00,56.2,29.3,30.26,WNW,293,0.0,8.0,36,0.00,,,0.00,WUHU216HW,2013-11-09 20:17:00,
2013-11-09 15:22:00,55.8,30.4,30.26,SW,225,0.4,2.2,38,0.00,,,0.00,WUHU216HW,2013-11-09 20:22:00,
2013-11-09 15:27:00,56.2,30.8,30.25,NW,315,0.0,2.6,38,0.00,,,0.00,WUHU216HW,2013-11-09 20:27:00,
2013-11-09 15:32:00,56.3,30.9,30.25,ESE,113,0.8,2.6,38,0.00,,,0.00,WUHU216HW,2013-11-09 20:32:00,
2013-11-09 15:37:00,56.0,30.6,30.25,WSW,248,0.8,2.2,38,0.00,,,0.00,WUHU216HW,2013-11-09 20:37:00,
2013-11-09 15:42:00,55.6,31.0,30.26,SSW,203,0.8,5.4,39,0.00,,,0.00,WUHU216HW,2013-11-09 20:42:00,
2013-11-09 15:47:00,55.6,31.0,30.26,SSW,203,0.0,5.4,39,0.00,,,0.00,WUHU216HW,2013-11-09 20:47:00,
2013-11-09 15:51:00,55.8,31.2,30.26,SSW,203,0.0,0.8,39,0.00,,,0.00,WUHU216HW,2013-11-09 20:51:00,
2013-11-09 15:57:00,55.4,30.8,30.26,WSW,248,1.4,1.4,39,0.00,,,0.00,WUHU216HW,2013-11-09 20:57:00,
2013-11-09 16:01:00,55.1,31.1,30.26,SW,225,0.0,1.4,40,0.00,,,0.00,WUHU216HW,2013-11-09 21:01:00,
2013-11-09 16:07:00,55.1,31.1,30.26,SW,225,0.0,0.4,40,0.00,,,0.00,WUHU216HW,2013-11-09 21:07:00,
2013-11-09 16:12:00,55.1,31.8,30.26,SW,225,0.8,1.4,41,0.00,,,0.00,WUHU216HW,2013-11-09 21:12:00,
2013-11-09 16:17:00,55.1,31.8,30.26,SSW,203,0.8,1.4,41,0.00,,,0.00,WUHU216HW,2013-11-09 21:17:00,
2013-11-09 16:22:00,54.5,31.2,30.26,WSW,248,0.0,1.8,41,0.00,,,0.00,WUHU216HW,2013-11-09 21:22:00,
2013-11-09 16:27:00,54.5,31.8,30.26,South,180,2.6,2.6,42,0.00,,,0.00,WUHU216HW,2013-11-09 21:27:00,
2013-11-09 16:31:00,54.5,31.8,30.26,SSW,203,1.8,5.0,42,0.00,,,0.00,WUHU216HW,2013-11-09 21:31:00,
2013-11-09 16:36:00,54.4,31.1,30.26,SSW,203,0.0,5.0,41,0.00,,,0.00,WUHU216HW,2013-11-09 21:36:00,
2013-11-09 16:41:00,53.8,31.1,30.26,SW,225,0.0,1.8,42,0.00,,,0.00,WUHU216HW,2013-11-09 21:41:00,
2013-11-09 16:46:00,53.8,31.7,30.26,WSW,248,0.8,0.8,43,0.00,,,0.00,WUHU216HW,2013-11-09 21:46:00,
2013-11-09 16:51:00,53.8,31.7,30.25,SSW,203,0.0,0.8,43,0.00,,,0.00,WUHU216HW,2013-11-09 21:51:00,
2013-11-09 16:56:00,53.6,31.6,30.26,SW,225,0.0,0.4,43,0.00,,,0.00,WUHU216HW,2013-11-09 21:56:00,
2013-11-09 17:01:00,53.5,31.4,30.26,SW,225,0.8,1.4,43,0.00,,,0.00,WUHU216HW,2013-11-09 22:01:00,
2013-11-09 17:06:00,53.3,31.8,30.26,SSW,203,0.0,1.4,44,0.00,,,0.00,WUHU216HW,2013-11-09 22:06:00,
2013-11-09 17:11:00,53.1,31.6,30.27,SSW,203,0.8,0.8,44,0.00,,,0.00,WUHU216HW,2013-11-09 22:11:00,
2013-11-09 17:16:00,53.1,31.1,30.26,South,180,0.0,0.8,43,0.00,,,0.00,WUHU216HW,2013-11-09 22:16:00,
2013-11-09 17:21:00,52.9,30.9,30.26,SW,225,0.0,0.0,43,0.00,,,0.00,WUHU216HW,2013-11-09 22:21:00,
2013-11-09 17:26:00,52.6,31.1,30.26,SW,225,0.0,0.0,44,0.00,,,0.00,WUHU216HW,2013-11-09 22:26:00,
2013-11-09 17:31:00,52.6,31.1,30.26,SW,225,0.0,0.0,44,0.00,,,0.00,WUHU216HW,2013-11-09 22:31:00,
2013-11-09 17:36:00,52.6,31.7,30.26,SW,225,0.0,0.0,45,0.00,,,0.00,WUHU216HW,2013-11-09 22:36:00,
2013-11-09 17:41:00,52.2,30.8,30.26,SSW,203,0.0,1.4,44,0.00,,,0.00,WUHU216HW,2013-11-09 22:41:00,
2013-11-09 17:46:00,51.8,30.5,30.26,SW,225,0.0,1.4,44,0.00,,,0.00,WUHU216HW,2013-11-09 22:46:00,
2013-11-09 17:51:00,52.0,30.7,30.27,SW,225,0.0,0.8,44,0.00,,,0.00,WUHU216HW,2013-11-09 22:51:00,
2013-11-09 17:56:00,52.2,31.4,30.26,South,180,2.2,2.2,45,0.00,,,0.00,WUHU216HW,2013-11-09 22:56:00,
2013-11-09 18:01:00,52.0,30.7,30.27,WSW,248,0.0,2.2,44,0.00,,,0.00,WUHU216HW,2013-11-09 23:01:00,
2013-11-09 18:06:00,51.7,29.8,30.27,WSW,248,0.0,0.8,43,0.00,,,0.00,WUHU216HW,2013-11-09 23:06:00,
2013-11-09 18:11:00,51.7,30.3,30.27,SW,225,0.0,2.2,44,0.00,,,0.00,WUHU216HW,2013-11-09 23:11:00,
2013-11-09 18:16:00,51.8,31.1,30.26,SW,225,0.8,2.2,45,0.00,,,0.00,WUHU216HW,2013-11-09 23:16:00,
2013-11-09 18:21:00,51.8,30.5,30.26,South,180,0.0,2.2,44,0.00,,,0.00,WUHU216HW,2013-11-09 23:21:00,
2013-11-09 18:26:00,51.5,29.6,30.26,SW,225,0.0,2.2,43,0.00,,,0.00,WUHU216HW,2013-11-09 23:26:00,
2013-11-09 18:31:00,51.5,30.2,30.25,ESE,113,2.6,3.2,44,0.00,,,0.00,WUHU216HW,2013-11-09 23:31:00,
2013-11-09 18:36:00,51.7,30.3,30.25,SW,225,0.8,3.2,44,0.00,,,0.00,WUHU216HW,2013-11-09 23:36:00,
2013-11-09 18:41:00,51.8,30.5,30.26,WSW,248,0.0,1.8,44,0.00,,,0.00,WUHU216HW,2013-11-09 23:41:00,
2013-11-09 18:46:00,51.5,30.2,30.26,South,180,0.0,0.8,44,0.00,,,0.00,WUHU216HW,2013-11-09 23:46:00,
2013-11-09 18:51:00,51.3,30.6,30.26,SW,225,0.8,0.8,45,0.00,,,0.00,WUHU216HW,2013-11-09 23:51:00,
2013-11-09 18:56:00,51.5,30.7,30.26,SW,225,0.0,0.8,45,0.00,,,0.00,WUHU216HW,2013-11-09 23:56:00,
2013-11-09 19:01:00,51.5,30.7,30.25,SSW,203,0.8,1.4,45,0.00,,,0.00,WUHU216HW,2013-11-10 00:01:00,
2013-11-09 19:06:00,51.5,30.7,30.25,SE,135,0.0,1.4,45,0.00,,,0.00,WUHU216HW,2013-11-10 00:06:00,
2013-11-09 19:11:00,51.1,31.0,30.25,SW,225,0.4,1.8,46,0.00,,,0.00,WUHU216HW,2013-11-10 00:11:00,
2013-11-09 19:17:00,51.1,31.0,30.25,SSW,203,0.4,1.8,46,0.00,,,0.00,WUHU216HW,2013-11-10 00:17:00,
2013-11-09 19:22:00,51.1,31.0,30.24,SE,135,0.8,0.8,46,0.00,,,0.00,WUHU216HW,2013-11-10 00:22:00,
2013-11-09 19:27:00,50.9,31.3,30.24,SE,135,0.8,0.8,47,0.00,,,0.00,WUHU216HW,2013-11-10 00:27:00,
2013-11-09 19:32:00,50.8,31.2,30.24,ESE,113,0.0,0.8,47,0.00,,,0.00,WUHU216HW,2013-11-10 00:32:00,
2013-11-09 19:37:00,50.6,31.6,30.23,SSE,158,0.8,1.4,48,0.00,,,0.00,WUHU216HW,2013-11-10 00:37:00,
2013-11-09 19:42:00,50.6,31.6,30.23,SSW,203,0.4,2.2,48,0.00,,,0.00,WUHU216HW,2013-11-10 00:42:00,
2013-11-09 19:47:00,50.6,31.6,30.23,WSW,248,0.0,2.2,48,0.00,,,0.00,WUHU216HW,2013-11-10 00:47:00,
2013-11-09 19:52:00,50.0,31.7,30.24,SW,225,0.8,1.4,49,0.00,,,0.00,WUHU216HW,2013-11-10 00:52:00,
2013-11-09 19:57:00,49.7,30.8,30.24,ESE,113,0.8,1.4,48,0.00,,,0.00,WUHU216HW,2013-11-10 00:57:00,
2013-11-09 20:02:00,49.9,31.0,30.24,SE,135,0.0,1.4,48,0.00,,,0.00,WUHU216HW,2013-11-10 01:02:00,
2013-11-09 20:07:00,50.0,31.7,30.23,South,180,0.8,0.8,49,0.00,,,0.00,WUHU216HW,2013-11-10 01:07:00,
2013-11-09 20:12:00,49.9,31.5,30.23,SSE,158,0.8,0.8,49,0.00,,,0.00,WUHU216HW,2013-11-10 01:12:00,
2013-11-09 20:17:00,49.5,31.2,30.23,SSW,203,0.0,0.8,49,0.00,,,0.00,WUHU216HW,2013-11-10 01:17:00,
2013-11-09 20:22:00,49.7,31.3,30.23,SE,135,0.8,0.8,49,0.00,,,0.00,WUHU216HW,2013-11-10 01:22:00,
2013-11-09 20:27:00,49.7,31.3,30.23,SW,225,1.4,1.4,49,0.00,,,0.00,WUHU216HW,2013-11-10 01:27:00,
2013-11-09 20:32:00,49.7,31.9,30.23,SSW,203,0.0,2.2,50,0.00,,,0.00,WUHU216HW,2013-11-10 01:32:00,
2013-11-09 20:37:00,49.5,31.2,30.23,SW,225,3.2,3.2,49,0.00,,,0.00,WUHU216HW,2013-11-10 01:37:00,
2013-11-09 20:42:00,49.3,31.0,30.22,SE,135,0.8,3.2,49,0.00,,,0.00,WUHU216HW,2013-11-10 01:42:00,
2013-11-09 20:47:00,49.5,31.2,30.22,SW,225,0.4,2.2,49,0.00,,,0.00,WUHU216HW,2013-11-10 01:47:00,
2013-11-09 20:52:00,49.7,31.9,30.22,South,180,2.2,2.2,50,0.00,,,0.00,WUHU216HW,2013-11-10 01:52:00,
2013-11-09 20:57:00,49.7,31.9,30.22,SW,225,0.8,2.2,50,0.00,,,0.00,WUHU216HW,2013-11-10 01:57:00,
2013-11-09 21:02:00,49.5,31.2,30.21,SE,135,0.0,2.2,49,0.00,,,0.00,WUHU216HW,2013-11-10 02:02:00,
2013-11-09 21:07:00,49.5,31.7,30.21,West,270,0.8,2.2,50,0.00,,,0.00,WUHU216HW,2013-11-10 02:07:00,
2013-11-09 21:12:00,49.5,31.7,30.22,SW,225,2.2,2.2,50,0.00,,,0.00,WUHU216HW,2013-11-10 02:12:00,
2013-11-09 21:17:00,49.7,31.3,30.22,SW,225,0.0,3.2,49,0.00,,,0.00,WUHU216HW,2013-11-10 02:17:00,
2013-11-09 21:22:00,49.3,31.0,30.22,South,180,1.4,3.2,49,0.00,,,0.00,WUHU216HW,2013-11-10 02:22:00,
2013-11-09 21:27:00,49.1,30.8,30.22,SSE,158,0.0,1.4,49,0.00,,,0.00,WUHU216HW,2013-11-10 02:27:00,
2013-11-09 21:32:00,49.3,31.0,30.22,West,270,0.4,2.6,49,0.00,,,0.00,WUHU216HW,2013-11-10 02:32:00,
2013-11-09 21:37:00,49.3,31.0,30.22,South,180,0.4,2.6,49,0.00,,,0.00,WUHU216HW,2013-11-10 02:37:00,
2013-11-09 21:42:00,49.3,31.0,30.22,South,180,4.0,4.0,49,0.00,,,0.00,WUHU216HW,2013-11-10 02:42:00,
2013-11-09 21:47:00,49.0,30.6,30.22,WSW,248,0.8,4.0,49,0.00,,,0.00,WUHU216HW,2013-11-10 02:47:00,
2013-11-09 21:52:00,49.0,30.6,30.21,North,0,1.8,2.2,49,0.00,,,0.00,WUHU216HW,2013-11-10 02:52:00,
2013-11-09 21:57:00,49.3,31.0,30.22,WSW,248,1.4,3.6,49,0.00,,,0.00,WUHU216HW,2013-11-10 02:57:00,
2013-11-09 22:02:00,49.1,30.8,30.22,SW,225,0.0,3.6,49,0.00,,,0.00,WUHU216HW,2013-11-10 03:02:00,
2013-11-09 22:07:00,48.8,30.4,30.23,West,270,1.8,2.2,49,0.00,,,0.00,WUHU216HW,2013-11-10 03:07:00,
2013-11-09 22:12:00,49.0,30.6,30.22,West,270,0.8,3.6,49,0.00,,,0.00,WUHU216HW,2013-11-10 03:12:00,
2013-11-09 22:17:00,49.3,31.0,30.22,SSW,203,0.8,4.4,49,0.00,,,0.00,WUHU216HW,2013-11-10 03:17:00,
2013-11-09 22:22:00,49.3,31.0,30.22,SW,225,0.4,4.4,49,0.00,,,0.00,WUHU216HW,2013-11-10 03:22:00,
2013-11-09 22:27:00,49.0,30.6,30.22,SSE,158,0.4,2.6,49,0.00,,,0.00,WUHU216HW,2013-11-10 03:27:00,
2013-11-09 22:32:00,49.0,30.6,30.22,North,0,0.0,2.6,49,0.00,,,0.00,WUHU216HW,2013-11-10 03:32:00,
2013-11-09 22:37:00,49.1,30.8,30.21,SW,225,2.2,2.2,49,0.00,,,0.00,WUHU216HW,2013-11-10 03:37:00,
2013-11-09 22:42:00,49.1,30.8,30.21,WSW,248,0.4,2.2,49,0.00,,,0.00,WUHU216HW,2013-11-10 03:42:00,
2013-11-09 22:47:00,48.8,30.4,30.21,SSW,203,0.0,0.8,49,0.00,,,0.00,WUHU216HW,2013-11-10 03:47:00,
2013-11-09 22:52:00,48.6,30.3,30.21,SE,135,0.0,0.4,49,0.00,,,0.00,WUHU216HW,2013-11-10 03:52:00,
2013-11-09 22:57:00,48.8,31.0,30.21,SW,225,3.6,3.6,50,0.00,,,0.00,WUHU216HW,2013-11-10 03:57:00,
2013-11-09 23:02:00,49.0,31.1,30.21,SW,225,0.0,4.0,50,0.00,,,0.00,WUHU216HW,2013-11-10 04:02:00,
2013-11-09 23:07:00,48.8,31.0,30.21,WSW,248,0.0,4.0,50,0.00,,,0.00,WUHU216HW,2013-11-10 04:07:00,
2013-11-09 23:12:00,48.6,30.8,30.21,SSW,203,0.4,2.2,50,0.00,,,0.00,WUHU216HW,2013-11-10 04:12:00,
2013-11-09 23:17:00,48.6,30.8,30.21,SW,225,2.2,2.2,50,0.00,,,0.00,WUHU216HW,2013-11-10 04:17:00,
2013-11-09 23:22:00,48.6,31.2,30.21,SW,225,0.8,2.2,51,0.00,,,0.00,WUHU216HW,2013-11-10 04:22:00,
2013-11-09 23:27:00,48.2,30.9,30.21,SW,225,1.4,3.2,51,0.00,,,0.00,WUHU216HW,2013-11-10 04:27:00,
2013-11-09 23:32:00,47.9,30.6,30.21,SW,225,0.8,3.2,51,0.00,,,0.00,WUHU216HW,2013-11-10 04:32:00,
2013-11-09 23:37:00,48.1,30.7,30.21,SSW,203,0.0,1.4,51,0.00,,,0.00,WUHU216HW,2013-11-10 04:37:00,
2013-11-09 23:42:00,48.2,31.3,30.21,WSW,248,0.0,0.8,52,0.00,,,0.00,WUHU216HW,2013-11-10 04:42:00,
2013-11-09 23:47:00,47.9,31.1,30.21,West,270,0.0,1.4,52,0.00,,,0.00,WUHU216HW,2013-11-10 04:47:00,
2013-11-09 23:52:00,47.7,31.3,30.21,NW,315,0.4,1.4,53,0.00,,,0.00,WUHU216HW,2013-11-10 04:52:00,
2013-11-09 23:57:00,47.7,31.3,30.22,WNW,293,0.0,1.4,53,0.00,,,0.00,WUHU216HW,2013-11-10 04:57:00,